Observations for Trim Market St
| Time | AQI | Temp °C | Hum % | Pres Pa | CO μg/m³ | H₂S μg/m³ | NO μg/m³ | NO₂ μg/m³ | O₃ μg/m³ | SO₂ μg/m³ | PM1 μg/m³ | PM2.5 μg/m³ | PM10 μg/m³ |
|---|---|---|---|---|---|---|---|---|---|---|---|---|---|
| Monday 24 August 2026 | |||||||||||||
| 18:50 | 4 | 23.1 | 42 | 65,321 | 0 | 12.49 | 0.6 | 37.43 | 106.74 | 0 | 3.56 | 8.06 | 9.91 |
| 18:49 | 4 | 23.1 | 42 | 65,343 | 0 | 12.23 | 0.71 | 38.28 | 106.72 | 0 | 3.56 | 8.07 | 11.5 |
| 18:48 | 4 | 23.2 | 42 | 65,370 | 0 | 12.97 | 0.67 | 38.2 | 93.27 | 0 | 2.14 | 5.45 | 8.32 |
| 18:47 | 4 | 23.2 | 41 | 65,410 | 0 | 13.47 | 0.74 | 40.67 | 93.78 | 0 | 3.56 | 8.09 | 9.92 |
| 18:46 | 4 | 23.3 | 41 | 65,431 | 0 | 14.77 | 0.7 | 49.5 | 98.44 | 0 | 3.56 | 8.1 | 11.52 |
| 18:45 | 4 | 23.4 | 41 | 65,466 | 0 | 14.95 | 0.7 | 42.97 | 110 | 0 | 3.56 | 8.11 | 10.72 |
| 18:44 | 4 | 23.4 | 41 | 65,499 | 0 | 14.85 | 0.62 | 42.58 | 97.85 | 0 | 3.56 | 7.07 | 9.93 |
| 18:43 | 4 | 23.5 | 40 | 65,540 | 0 | 14.45 | 0.65 | 42.55 | 113.67 | 0 | 3.56 | 7.08 | 9.13 |
| 18:42 | 4 | 23.6 | 40 | 65,566 | 0 | 14.29 | 0.62 | 40.9 | 92.01 | 0 | 2.85 | 7.09 | 9.13 |
| 18:40 | 4 | 23.7 | 40 | 65,598 | 0 | 14.66 | 0.65 | 44.88 | 100.46 | 0 | 3.56 | 6.59 | 9.94 |
| 18:39 | 4 | 23.7 | 40 | 65,605 | 0 | 14.58 | 0.65 | 46.53 | 85.28 | 0 | 2.14 | 7.13 | 9.14 |
| 18:38 | 4 | 23.7 | 40 | 65,621 | 0 | 15.56 | 0.67 | 56.69 | 75.81 | 0 | 2.85 | 6.07 | 8.33 |
| 18:36 | 4 | 23.8 | 39 | 65,665 | 0 | 14.34 | 0.65 | 38.79 | 96.52 | 0 | 3.56 | 6.62 | 9.96 |
| 18:35 | 4 | 23.9 | 39 | 65,694 | 0 | 14.98 | 0.63 | 43.26 | 97.74 | 0 | 2.14 | 5.04 | 6.72 |
| 18:34 | 4 | 23.9 | 39 | 65,704 | 0 | 14.37 | 0.63 | 40.42 | 109.07 | 0 | 2.85 | 7.17 | 9.96 |
| 18:33 | 4 | 24 | 39 | 65,719 | 0 | 14.71 | 0.57 | 38.31 | 101.82 | 0 | 2.14 | 5.59 | 7.53 |
| 18:32 | 4 | 24.1 | 39 | 65,732 | 0 | 14.21 | 0.59 | 39.48 | 106.13 | 0 | 2.14 | 6.66 | 7.53 |
| 18:31 | 4 | 24.1 | 38 | 65,724 | 0 | 14.84 | 0.61 | 42.83 | 99.17 | 0 | 4.28 | 8.26 | 10.78 |
| 18:27 | 4 | 24.4 | 38 | 65,748 | 0 | 15.48 | 0.56 | 43.11 | 81.72 | 0 | 2.14 | 7.23 | 9.16 |
| 18:24 | 4 | 24.6 | 37 | 65,724 | 0 | 18.08 | 0.58 | 48.22 | 98.34 | 0 | 4.28 | 7.78 | 11.63 |